createdAt,value
2022-08-17T00:00:34.569Z,94955.94
2022-08-17T00:02:30.636Z,94957.84
2022-08-17T00:04:35.629Z,94956.72
2022-08-17T00:06:35.663Z,94958.72
2022-08-17T00:08:37.465Z,94960.91
2022-08-17T00:10:36.061Z,94959.88
2022-08-17T00:12:51.540Z,94962.94
2022-08-17T00:14:50.449Z,94967.09
2022-08-17T00:16:56.822Z,94964.63
2022-08-17T00:19:06.167Z,94962.97
2022-08-17T00:21:10.374Z,94961.31
2022-08-17T00:23:13.177Z,94963.03
2022-08-17T00:25:16.333Z,94959.06
2022-08-17T00:27:14.722Z,94966.91
2022-08-17T00:29:19.334Z,94961.25
2022-08-17T00:31:18.333Z,94955.75
2022-08-17T00:33:19.310Z,94959.28
2022-08-17T00:35:23.352Z,94966.66
2022-08-17T00:37:22.763Z,94958.88
2022-08-17T00:39:20.882Z,94965.72
2022-08-17T00:41:24.295Z,94959.06
2022-08-17T00:43:27.596Z,94958.94
2022-08-17T00:45:25.866Z,94959.66
2022-08-17T00:47:24.115Z,94954.25
2022-08-17T00:49:23.707Z,94957.19
2022-08-17T00:51:30.430Z,94952.91
2022-08-17T00:53:32.924Z,94946.53
2022-08-17T00:55:31.162Z,94947.13
2022-08-17T00:57:34.169Z,94948.81
2022-08-17T00:59:38.419Z,94959.88
2022-08-17T01:01:38.531Z,94954.47
2022-08-17T01:03:39.903Z,94947.63
2022-08-17T01:05:42.527Z,94955.53
2022-08-17T01:07:41.343Z,94958.88
2022-08-17T01:09:41.693Z,94959.56
2022-08-17T01:11:40.678Z,94958.81
2022-08-17T01:13:44.412Z,94956.41
2022-08-17T01:15:47.602Z,94963.06
2022-08-17T01:17:47.192Z,94963.06
2022-08-17T01:19:45.686Z,94962.88
2022-08-17T01:21:51.632Z,94964.13
2022-08-17T01:23:51.334Z,94967.38
2022-08-17T01:25:51.435Z,94963.78
2022-08-17T01:27:50.371Z,94965.78
2022-08-17T01:29:52.151Z,94956.69
2022-08-17T01:31:54.624Z,94955.88
2022-08-17T01:33:53.451Z,94952.91
2022-08-17T01:35:51.921Z,94944.47
2022-08-17T01:37:50.424Z,94956.78
2022-08-17T01:39:54.959Z,94952.00
2022-08-17T01:41:57.599Z,94957.56
2022-08-17T01:44:01.142Z,94949.94
2022-08-17T01:46:03.856Z,94952.97
2022-08-17T01:48:02.476Z,94950.38
2022-08-17T01:50:07.630Z,94956.66
2022-08-17T01:52:08.868Z,94950.09
2022-08-17T01:54:11.317Z,94962.13
2022-08-17T01:56:13.683Z,94957.03
2022-08-17T01:58:12.550Z,94960.03
2022-08-17T02:00:11.680Z,94961.03
2022-08-17T02:02:10.334Z,94962.06
2022-08-17T02:04:09.563Z,94952.88
2022-08-17T02:06:27.064Z,94961.59
2022-08-17T02:08:39.164Z,94955.63
2022-08-17T02:10:46.689Z,94961.38
2022-08-17T02:12:46.489Z,94961.75
2022-08-17T02:14:44.873Z,94964.38
2022-08-17T02:16:43.643Z,94971.78
2022-08-17T02:18:42.209Z,94978.69
2022-08-17T02:20:42.947Z,94965.81
2022-08-17T02:22:45.535Z,94969.91
2022-08-17T02:24:59.608Z,94970.19
2022-08-17T02:26:59.648Z,94966.88
2022-08-17T02:28:59.262Z,94963.59
2022-08-17T02:31:01.463Z,94963.88
2022-08-17T02:33:04.039Z,94960.34
2022-08-17T02:35:06.062Z,94960.03
2022-08-17T02:37:04.378Z,94965.84
2022-08-17T02:39:03.403Z,94965.22
2022-08-17T02:41:01.854Z,94960.00
2022-08-17T02:43:00.271Z,94971.34
2022-08-17T02:45:03.422Z,94966.84
2022-08-17T02:47:01.987Z,94974.00
2022-08-17T02:49:00.608Z,94977.31
2022-08-17T02:50:58.717Z,94971.34
2022-08-17T02:53:01.856Z,94974.75
2022-08-17T02:55:00.994Z,94967.91
2022-08-17T02:56:59.265Z,94974.41
2022-08-17T02:58:57.513Z,94972.41
2022-08-17T03:00:57.141Z,94969.66
2022-08-17T03:02:57.271Z,94981.69
2022-08-17T03:04:55.604Z,94984.81
2022-08-17T03:06:53.901Z,94976.34
2022-08-17T03:08:52.494Z,94983.38
2022-08-17T03:10:51.347Z,94983.97
2022-08-17T03:12:50.420Z,94981.66
2022-08-17T03:14:49.055Z,94988.38
2022-08-17T03:16:48.688Z,94991.03
2022-08-17T03:18:46.928Z,94988.47
2022-08-17T03:20:45.415Z,94989.09
2022-08-17T03:22:52.996Z,94995.88
2022-08-17T03:24:52.009Z,94999.41
2022-08-17T03:26:51.610Z,94998.47
2022-08-17T03:28:49.777Z,95000.38
2022-08-17T03:30:48.135Z,94988.91
2022-08-17T03:32:50.868Z,94996.63
2022-08-17T03:34:49.149Z,94996.06
2022-08-17T03:36:47.462Z,95004.78
2022-08-17T03:38:45.644Z,94998.94
2022-08-17T03:40:57.225Z,95006.91
2022-08-17T03:42:58.013Z,95002.06
2022-08-17T03:44:58.443Z,94995.41
2022-08-17T03:47:14.124Z,95000.38
2022-08-17T03:49:31.155Z,95004.34
2022-08-17T03:51:46.767Z,95003.78
2022-08-17T03:54:07.700Z,94996.72
2022-08-17T03:56:24.156Z,95004.16
2022-08-17T03:58:22.776Z,95008.59
2022-08-17T04:00:21.222Z,95002.56
2022-08-17T04:02:24.899Z,95008.03
2022-08-17T04:04:27.628Z,95009.09
2022-08-17T04:06:26.092Z,95009.66
2022-08-17T04:08:24.424Z,95011.38
2022-08-17T04:10:26.398Z,95006.19
2022-08-17T04:12:25.848Z,95020.03
2022-08-17T04:14:24.507Z,95010.19
2022-08-17T04:16:22.814Z,95014.97
2022-08-17T04:18:21.219Z,95011.06
2022-08-17T04:20:22.494Z,95025.06
2022-08-17T04:22:32.204Z,95017.38
2022-08-17T04:24:32.115Z,95034.50
2022-08-17T04:26:54.209Z,95026.88
2022-08-17T04:28:48.954Z,95027.50
2022-08-17T04:30:48.567Z,95028.34
2022-08-17T04:33:04.697Z,95028.56
2022-08-17T04:35:05.839Z,95037.34
2022-08-17T04:37:05.798Z,95036.59
2022-08-17T04:39:04.125Z,95039.00
2022-08-17T04:41:20.829Z,95047.34
2022-08-17T04:43:21.747Z,95050.94
2022-08-17T04:45:19.993Z,95038.81
2022-08-17T04:47:20.737Z,95041.09
2022-08-17T04:49:18.964Z,95043.47
2022-08-17T04:51:19.323Z,95041.06
2022-08-17T04:53:21.764Z,95044.13
2022-08-17T04:55:20.137Z,95041.78
2022-08-17T04:57:18.442Z,95041.69
2022-08-17T04:59:19.061Z,95045.53
2022-08-17T05:01:23.062Z,95049.06
2022-08-17T05:03:22.462Z,95042.22
2022-08-17T05:05:20.949Z,95042.31
2022-08-17T05:07:23.444Z,95039.41
2022-08-17T05:09:24.539Z,95039.63
2022-08-17T05:11:23.527Z,95036.69
2022-08-17T05:13:26.973Z,95040.97
2022-08-17T05:15:25.339Z,95041.25
2022-08-17T05:17:23.543Z,95045.69
2022-08-17T05:19:21.881Z,95050.03
2022-08-17T05:21:22.962Z,95055.97
2022-08-17T05:23:23.088Z,95050.59
2022-08-17T05:25:25.731Z,95053.88
2022-08-17T05:27:24.174Z,95052.22
2022-08-17T05:29:35.605Z,95050.44
2022-08-17T05:31:34.031Z,95044.97
2022-08-17T05:33:44.318Z,95050.59
2022-08-17T05:35:47.220Z,95051.44
2022-08-17T05:37:45.604Z,95058.16
2022-08-17T05:39:43.829Z,95048.78
2022-08-17T05:41:43.397Z,95051.53
2022-08-17T05:43:43.471Z,95060.25
2022-08-17T05:45:55.932Z,95048.41
2022-08-17T05:47:54.635Z,95055.22
2022-08-17T05:49:53.845Z,95053.53
2022-08-17T05:52:20.041Z,95052.16
2022-08-17T05:54:30.225Z,95054.91
2022-08-17T05:56:48.022Z,95053.50
2022-08-17T05:59:00.311Z,95054.94
2022-08-17T06:01:04.126Z,95052.59
2022-08-17T06:03:23.641Z,95055.16
2022-08-17T06:05:39.980Z,95058.72
2022-08-17T06:07:47.015Z,95060.19
2022-08-17T06:09:54.716Z,95055.53
2022-08-17T06:11:58.779Z,95052.59
2022-08-17T06:14:20.878Z,95053.81
2022-08-17T06:16:26.000Z,95051.31
2022-08-17T06:18:49.347Z,95045.38
2022-08-17T06:20:52.111Z,95046.75
2022-08-17T06:22:53.064Z,95054.09
2022-08-17T06:24:56.798Z,95059.09
2022-08-17T06:26:56.515Z,95048.59
2022-08-17T06:28:59.721Z,95049.47
2022-08-17T06:31:14.132Z,95050.47
2022-08-17T06:33:20.695Z,95053.53
2022-08-17T06:35:31.797Z,95056.41
2022-08-17T06:37:53.979Z,95052.28
2022-08-17T06:40:02.894Z,95051.66
2022-08-17T06:43:02.206Z,95045.72
2022-08-17T06:44:50.796Z,95049.31
2022-08-17T06:46:58.764Z,95040.88
2022-08-17T06:49:08.003Z,95043.00
2022-08-17T06:51:15.232Z,95040.88
2022-08-17T06:53:22.472Z,95037.72
2022-08-17T06:55:24.723Z,95038.91
2022-08-17T06:57:28.527Z,95041.22
2022-08-17T06:59:54.607Z,95041.81
2022-08-17T07:01:56.606Z,95043.09
2022-08-17T07:04:00.186Z,95042.38
2022-08-17T07:06:15.735Z,95040.97
2022-08-17T07:08:21.048Z,95037.13
2022-08-17T07:10:21.961Z,95040.91
2022-08-17T07:12:23.818Z,95040.00
2022-08-17T07:14:33.741Z,95041.16
2022-08-17T07:16:38.946Z,95037.44
2022-08-17T07:18:38.714Z,95038.84
2022-08-17T07:20:42.854Z,95042.03
2022-08-17T07:22:59.318Z,95040.41
2022-08-17T07:25:01.829Z,95038.03
2022-08-17T07:27:12.683Z,95038.50
2022-08-17T07:29:15.439Z,95033.94
2022-08-17T07:31:17.216Z,95043.44
2022-08-17T07:33:20.247Z,95039.84
2022-08-17T07:35:23.335Z,95041.72
2022-08-17T07:37:33.357Z,95039.78
2022-08-17T07:39:31.663Z,95035.81
2022-08-17T07:41:57.967Z,95039.75
2022-08-17T07:43:53.018Z,95029.34
2022-08-17T07:46:22.252Z,95040.84
2022-08-17T07:48:22.819Z,95027.03
2022-08-17T07:50:29.090Z,95023.56
2022-08-17T07:52:50.672Z,95034.47
2022-08-17T07:54:50.613Z,95025.88
2022-08-17T07:56:50.936Z,95029.13
2022-08-17T07:58:49.164Z,95027.25
2022-08-17T08:00:47.911Z,95023.84
2022-08-17T08:03:00.755Z,95023.97
2022-08-17T08:05:03.118Z,95023.50
2022-08-17T08:07:12.111Z,95020.72
2022-08-17T08:09:28.744Z,95019.41
2022-08-17T08:11:31.820Z,95029.59
2022-08-17T08:13:32.449Z,95024.22
2022-08-17T08:15:36.863Z,95016.06
2022-08-17T08:17:37.035Z,95018.81
2022-08-17T08:19:35.584Z,95016.25
2022-08-17T08:21:41.884Z,95015.75
2022-08-17T08:23:50.310Z,95010.44
2022-08-17T08:25:59.566Z,95005.88
2022-08-17T08:28:16.238Z,95006.16
2022-08-17T08:30:19.589Z,95009.41
2022-08-17T08:32:22.114Z,95015.88
2022-08-17T08:34:44.988Z,95000.41
2022-08-17T08:37:17.757Z,94994.31
2022-08-17T08:39:24.713Z,95001.22
2022-08-17T08:41:38.451Z,94995.41
2022-08-17T08:43:39.281Z,94998.72
2022-08-17T08:45:46.938Z,94995.53
2022-08-17T08:48:22.924Z,94990.16
2022-08-17T08:50:37.949Z,94987.72
2022-08-17T08:53:05.038Z,94982.34
2022-08-17T08:55:13.477Z,94977.66
2022-08-17T08:57:32.797Z,94978.56
2022-08-17T08:59:44.262Z,94981.94
2022-08-17T09:01:52.482Z,94986.50
2022-08-17T09:04:28.793Z,94984.72
2022-08-17T09:06:45.154Z,94980.19
2022-08-17T09:09:03.369Z,94976.91
2022-08-17T09:11:11.730Z,94974.50
2022-08-17T09:13:20.950Z,94976.41
2022-08-17T09:15:25.758Z,94980.97
2022-08-17T09:17:36.365Z,94979.94
2022-08-17T09:19:43.067Z,94978.78
2022-08-17T09:21:48.360Z,94973.84
2022-08-17T09:23:59.949Z,94969.09
2022-08-17T09:26:03.689Z,94973.13
2022-08-17T09:28:07.818Z,94985.47
2022-08-17T09:30:12.209Z,94977.03
2022-08-17T09:32:18.767Z,94975.84
2022-08-17T09:34:33.047Z,94982.19
2022-08-17T09:36:38.713Z,94973.88
2022-08-17T09:38:44.545Z,94973.06
2022-08-17T09:40:51.768Z,94973.38
2022-08-17T09:42:53.565Z,94975.16
2022-08-17T09:45:04.096Z,94976.72
2022-08-17T09:47:11.159Z,94969.03
2022-08-17T09:49:15.120Z,94969.31
2022-08-17T09:51:19.618Z,94963.56
2022-08-17T09:53:17.798Z,94957.38
2022-08-17T09:55:16.204Z,94966.03
2022-08-17T09:57:35.617Z,94962.91
2022-08-17T09:59:52.109Z,94969.84
2022-08-17T10:02:02.057Z,94966.94
2022-08-17T10:04:29.335Z,94956.25
2022-08-17T10:06:33.746Z,94961.00
2022-08-17T10:08:41.889Z,94945.53
2022-08-17T10:10:52.495Z,94959.34
2022-08-17T10:13:05.366Z,94956.25
2022-08-17T10:15:24.768Z,94955.91
2022-08-17T10:17:29.430Z,94950.53
2022-08-17T10:19:35.732Z,94954.19
2022-08-17T10:22:00.580Z,94942.50
2022-08-17T10:24:26.111Z,94955.75
2022-08-17T10:26:27.399Z,94948.00
2022-08-17T10:28:47.226Z,94944.47
2022-08-17T10:30:51.487Z,94950.31
2022-08-17T10:32:56.205Z,94945.50
2022-08-17T10:35:14.678Z,94938.00
2022-08-17T10:37:38.366Z,94938.16
2022-08-17T10:39:52.043Z,94945.03
2022-08-17T10:41:56.432Z,94941.00
2022-08-17T10:44:38.164Z,94938.16
2022-08-17T10:46:31.102Z,94936.19
2022-08-17T10:48:36.598Z,94917.41
2022-08-17T10:50:49.768Z,94920.22
2022-08-17T10:52:52.260Z,94922.53
2022-08-17T10:55:06.345Z,94920.00
2022-08-17T10:57:24.689Z,94930.34
2022-08-17T10:59:50.484Z,94923.38
2022-08-17T11:02:15.407Z,94922.88
2022-08-17T11:04:32.653Z,94909.88
2022-08-17T11:06:41.976Z,94924.41
2022-08-17T11:09:19.996Z,94920.69
2022-08-17T11:11:45.554Z,94917.16
2022-08-17T11:13:53.288Z,94913.38
2022-08-17T11:16:07.789Z,94911.63
2022-08-17T11:18:22.380Z,94912.84
2022-08-17T11:20:41.421Z,94927.19
2022-08-17T11:23:10.976Z,94931.91
2022-08-17T11:25:16.803Z,94916.59
2022-08-17T11:27:26.064Z,94920.53
2022-08-17T11:29:28.027Z,94919.66
2022-08-17T11:31:37.899Z,94924.81
2022-08-17T11:33:57.883Z,94917.47
2022-08-17T11:36:07.754Z,94925.34
2022-08-17T11:38:21.143Z,94934.84
2022-08-17T11:40:47.584Z,94931.53
2022-08-17T11:43:04.624Z,94939.66
2022-08-17T11:45:32.557Z,94945.34
2022-08-17T11:48:26.562Z,94946.56
2022-08-17T11:50:51.441Z,94954.41
2022-08-17T11:52:51.935Z,94957.00
2022-08-17T11:54:51.004Z,94956.69
2022-08-17T11:56:51.950Z,94956.28
2022-08-17T11:58:50.149Z,94961.84
2022-08-17T12:00:52.592Z,94966.75
2022-08-17T12:03:28.670Z,94966.00
2022-08-17T12:05:34.154Z,94970.34
2022-08-17T12:07:34.485Z,94977.59
2022-08-17T12:09:39.405Z,94980.31
2022-08-17T12:11:58.767Z,94971.59
2022-08-17T12:14:02.759Z,94974.13
2022-08-17T12:16:01.627Z,94970.13
2022-08-17T12:18:00.294Z,94969.09
2022-08-17T12:20:12.578Z,94970.16
2022-08-17T12:22:18.929Z,94962.25
2022-08-17T12:24:31.525Z,94963.41
2022-08-17T12:26:35.470Z,94952.00
2022-08-17T12:28:40.309Z,94952.41
2022-08-17T12:30:39.162Z,94952.28
2022-08-17T12:32:40.743Z,94940.94
2022-08-17T12:34:44.524Z,94946.75
2022-08-17T12:36:42.988Z,94954.47
2022-08-17T12:38:42.127Z,94943.47
2022-08-17T12:40:40.551Z,94946.28
2022-08-17T12:42:41.687Z,94932.94
2022-08-17T12:44:50.415Z,94936.13
2022-08-17T12:46:54.556Z,94926.31
2022-08-17T12:48:59.280Z,94937.91
2022-08-17T12:51:02.202Z,94931.00
2022-08-17T12:53:02.704Z,94934.19
2022-08-17T12:55:02.841Z,94937.41
2022-08-17T12:57:07.227Z,94942.81
2022-08-17T12:59:12.341Z,94929.84
2022-08-17T13:01:18.040Z,94935.03
2022-08-17T13:03:19.396Z,94935.84
2022-08-17T13:05:23.034Z,94931.53
2022-08-17T13:07:33.387Z,94936.72
2022-08-17T13:09:40.154Z,94921.28
2022-08-17T13:11:48.945Z,94925.47
2022-08-17T13:13:50.951Z,94931.47
2022-08-17T13:15:56.651Z,94921.41
2022-08-17T13:18:01.267Z,94914.88
2022-08-17T13:20:00.025Z,94913.53
2022-08-17T13:22:04.244Z,94925.47
2022-08-17T13:24:05.096Z,94923.31
2022-08-17T13:26:08.008Z,94927.28
2022-08-17T13:28:06.323Z,94917.94
2022-08-17T13:30:11.775Z,94921.06
2022-08-17T13:32:23.035Z,94927.03
2022-08-17T13:34:44.541Z,94921.75
2022-08-17T13:37:35.227Z,94917.56
2022-08-17T13:39:43.212Z,94926.47
2022-08-17T13:41:41.483Z,94913.94
2022-08-17T13:43:50.745Z,94910.38
2022-08-17T13:45:52.329Z,94913.97
2022-08-17T13:48:41.317Z,94909.00
2022-08-17T13:50:43.744Z,94906.75
2022-08-17T13:52:48.786Z,94900.94
2022-08-17T13:54:53.240Z,94898.66
2022-08-17T13:57:01.057Z,94897.53
2022-08-17T13:59:03.548Z,94885.81
2022-08-17T14:01:29.274Z,94892.63
2022-08-17T14:03:30.644Z,94887.22
2022-08-17T14:05:29.642Z,94885.25
2022-08-17T14:07:36.626Z,94875.22
2022-08-17T14:09:37.700Z,94891.00
2022-08-17T14:11:36.899Z,94890.88
2022-08-17T14:13:35.602Z,94885.63
2022-08-17T14:15:55.792Z,94896.13
2022-08-17T14:17:57.833Z,94887.31
2022-08-17T14:19:57.568Z,94883.88
2022-08-17T14:21:56.590Z,94885.22
2022-08-17T14:23:56.422Z,94889.75
2022-08-17T14:25:55.152Z,94891.22
2022-08-17T14:27:54.197Z,94890.25
2022-08-17T14:29:53.370Z,94890.75
2022-08-17T14:31:54.124Z,94886.94
2022-08-17T14:33:53.182Z,94889.56
2022-08-17T14:35:53.657Z,94888.56
2022-08-17T14:37:53.113Z,94878.81
2022-08-17T14:39:55.916Z,94882.00
2022-08-17T14:41:54.403Z,94885.19
2022-08-17T14:43:53.505Z,94889.22
2022-08-17T14:45:52.017Z,94886.53
2022-08-17T14:47:50.409Z,94874.34
2022-08-17T14:49:49.417Z,94882.19
2022-08-17T14:51:48.512Z,94886.72
2022-08-17T14:53:46.982Z,94883.13
2022-08-17T14:55:47.423Z,94879.09
2022-08-17T14:57:47.085Z,94880.69
2022-08-17T14:59:45.583Z,94881.25
2022-08-17T15:01:44.309Z,94879.88
2022-08-17T15:03:43.499Z,94885.03
2022-08-17T15:05:44.313Z,94879.28
2022-08-17T15:07:42.456Z,94886.53
2022-08-17T15:09:40.746Z,94880.59
2022-08-17T15:11:40.799Z,94885.47
2022-08-17T15:13:52.555Z,94882.22
2022-08-17T15:15:52.824Z,94881.97
2022-08-17T15:17:51.735Z,94887.41
2022-08-17T15:19:50.607Z,94886.00
2022-08-17T15:21:48.881Z,94893.03
2022-08-17T15:23:47.856Z,94887.56
2022-08-17T15:25:47.770Z,94888.19
2022-08-17T15:27:47.688Z,94893.06
2022-08-17T15:29:46.124Z,94895.53
2022-08-17T15:31:44.728Z,94889.81
2022-08-17T15:33:43.071Z,94888.72
2022-08-17T15:35:42.864Z,94896.84
2022-08-17T15:37:42.117Z,94899.03
2022-08-17T15:39:40.395Z,94892.03
2022-08-17T15:41:38.645Z,94888.81
2022-08-17T15:43:38.341Z,94887.22
2022-08-17T15:45:36.767Z,94879.69
2022-08-17T15:47:35.030Z,94879.88
2022-08-17T15:49:33.530Z,94887.94
2022-08-17T15:51:34.411Z,94890.41
2022-08-17T15:53:32.717Z,94889.84
2022-08-17T15:55:32.758Z,94896.91
2022-08-17T15:57:31.024Z,94892.25
2022-08-17T15:59:31.113Z,94889.50
2022-08-17T16:03:15.344Z,94888.63
2022-08-17T16:04:04.213Z,94886.38
2022-08-17T16:06:07.894Z,94897.34
2022-08-17T16:08:08.155Z,94897.81
2022-08-17T16:10:07.906Z,94898.78
2022-08-17T16:12:14.034Z,94895.44
2022-08-17T16:14:12.213Z,94896.41
2022-08-17T16:16:14.928Z,94893.56
2022-08-17T16:18:19.039Z,94894.56
2022-08-17T16:20:20.439Z,94895.03
2022-08-17T16:22:29.821Z,94900.63
2022-08-17T16:24:28.425Z,94896.56
2022-08-17T16:26:26.966Z,94901.66
2022-08-17T16:28:35.589Z,94897.53
2022-08-17T16:30:34.873Z,94889.97
2022-08-17T16:32:37.732Z,94899.94
2022-08-17T16:34:35.951Z,94897.72
2022-08-17T16:36:34.547Z,94892.72
2022-08-17T16:38:34.175Z,94901.81
2022-08-17T16:40:35.700Z,94904.22
2022-08-17T16:42:37.071Z,94902.25
2022-08-17T16:44:35.996Z,94910.53
2022-08-17T16:46:34.325Z,94912.19
2022-08-17T16:48:34.198Z,94906.38
2022-08-17T16:50:33.901Z,94905.97
2022-08-17T16:52:33.563Z,94916.13
2022-08-17T16:54:32.038Z,94908.78
2022-08-17T16:56:34.929Z,94912.69
2022-08-17T16:58:33.256Z,94916.84
2022-08-17T17:00:33.186Z,94918.06
2022-08-17T17:02:33.914Z,94915.63
2022-08-17T17:04:38.063Z,94916.09
2022-08-17T17:06:43.854Z,94919.22
2022-08-17T17:08:48.478Z,94919.38
2022-08-17T17:10:50.191Z,94928.44
2022-08-17T17:13:02.427Z,94928.84
2022-08-17T17:15:02.770Z,94924.66
2022-08-17T17:17:06.512Z,94923.25
2022-08-17T17:19:11.229Z,94929.56
2022-08-17T17:21:15.692Z,94946.97
2022-08-17T17:23:30.090Z,94938.19
2022-08-17T17:25:31.996Z,94938.19
2022-08-17T17:27:38.259Z,94940.81
2022-08-17T17:29:47.438Z,94953.88
2022-08-17T17:32:07.575Z,94950.25
2022-08-17T17:34:08.859Z,94963.28
2022-08-17T17:36:14.299Z,94953.91
2022-08-17T17:38:20.122Z,94959.44
2022-08-17T17:40:23.197Z,94952.88
2022-08-17T17:42:24.906Z,94958.69
2022-08-17T17:44:28.827Z,94963.88
2022-08-17T17:46:33.573Z,94969.63
2022-08-17T17:48:31.992Z,94971.41
2022-08-17T17:50:35.783Z,94968.81
2022-08-17T17:52:40.751Z,94973.38
2022-08-17T17:54:57.886Z,94975.25
2022-08-17T17:57:05.843Z,94982.28
2022-08-17T17:59:13.451Z,94979.69
2022-08-17T18:01:21.117Z,94978.28
2022-08-17T18:03:32.252Z,94980.84
2022-08-17T18:06:05.224Z,94979.66
2022-08-17T18:08:16.603Z,94985.50
2022-08-17T18:10:30.141Z,94992.84
2022-08-17T18:12:39.807Z,95000.22
2022-08-17T18:15:04.215Z,94995.06
2022-08-17T18:17:02.490Z,95000.78
2022-08-17T18:19:01.905Z,95007.44
2022-08-17T18:21:07.625Z,95008.00
2022-08-17T18:23:06.094Z,94995.59
2022-08-17T18:25:43.577Z,95008.94
2022-08-17T18:27:51.929Z,95009.94
2022-08-17T18:29:52.828Z,95010.06
2022-08-17T18:32:16.202Z,95013.56
2022-08-17T18:34:45.982Z,95016.56
2022-08-17T18:36:43.476Z,95026.59
2022-08-17T18:38:43.864Z,95021.22
2022-08-17T18:40:43.865Z,95027.06
2022-08-17T18:42:42.755Z,95025.41
2022-08-17T18:44:45.209Z,95032.47
2022-08-17T18:46:43.583Z,95037.00
2022-08-17T18:48:53.639Z,95032.91
2022-08-17T18:51:00.620Z,95042.25
2022-08-17T18:53:20.838Z,95041.84
2022-08-17T18:55:28.512Z,95043.34
2022-08-17T18:57:32.690Z,95044.22
2022-08-17T18:59:39.015Z,95042.84
2022-08-17T19:01:54.513Z,95044.78
2022-08-17T19:03:53.718Z,95043.66
2022-08-17T19:05:54.822Z,95055.22
2022-08-17T19:07:53.317Z,95051.34
2022-08-17T19:09:57.041Z,95047.06
2022-08-17T19:11:55.445Z,95045.03
2022-08-17T19:14:01.585Z,95052.16
2022-08-17T19:16:14.642Z,95060.22
2022-08-17T19:18:19.758Z,95053.63
2022-08-17T19:20:22.887Z,95060.66
2022-08-17T19:22:28.619Z,95049.28
2022-08-17T19:24:32.760Z,95056.31
2022-08-17T19:26:53.586Z,95055.72
2022-08-17T19:29:00.862Z,95047.50
2022-08-17T19:31:04.228Z,95057.28
2022-08-17T19:33:03.601Z,95050.56
2022-08-17T19:35:03.024Z,95056.19
2022-08-17T19:37:07.114Z,95060.19
2022-08-17T19:39:12.257Z,95059.75
2022-08-17T19:41:20.572Z,95054.53
2022-08-17T19:43:27.899Z,95053.28
2022-08-17T19:45:40.078Z,95062.75
2022-08-17T19:48:04.987Z,95066.34
2022-08-17T19:50:09.853Z,95063.66
2022-08-17T19:52:40.628Z,95058.47
2022-08-17T19:54:47.393Z,95063.75
2022-08-17T19:56:56.720Z,95060.53
2022-08-17T19:59:10.574Z,95058.84
2022-08-17T20:01:13.138Z,95066.53
2022-08-17T20:03:16.903Z,95056.88
2022-08-17T20:05:21.603Z,95058.34
2022-08-17T20:07:23.498Z,95057.44
2022-08-17T20:09:35.564Z,95058.94
2022-08-17T20:11:41.428Z,95059.50
2022-08-17T20:13:46.659Z,95066.78
2022-08-17T20:15:45.884Z,95071.38
2022-08-17T20:17:48.263Z,95062.91
2022-08-17T20:19:53.394Z,95069.13
2022-08-17T20:22:00.042Z,95069.78
2022-08-17T20:24:06.496Z,95076.16
2022-08-17T20:26:18.507Z,95067.91
2022-08-17T20:28:23.540Z,95063.16
2022-08-17T20:30:38.455Z,95070.16
2022-08-17T20:32:50.297Z,95072.25
2022-08-17T20:34:50.115Z,95072.28
2022-08-17T20:37:00.882Z,95072.69
2022-08-17T20:39:01.204Z,95079.75
2022-08-17T20:41:20.879Z,95071.09
2022-08-17T20:43:52.260Z,95079.19
2022-08-17T20:46:12.796Z,95082.09
2022-08-17T20:48:37.361Z,95076.13
2022-08-17T20:50:43.521Z,95082.53
2022-08-17T20:52:51.480Z,95082.53
2022-08-17T20:54:52.754Z,95079.84
2022-08-17T20:56:57.372Z,95085.59
2022-08-17T20:58:56.529Z,95086.63
2022-08-17T21:01:20.323Z,95086.69
2022-08-17T21:04:01.374Z,95082.16
2022-08-17T21:06:16.829Z,95082.31
2022-08-17T21:08:18.374Z,95081.94
2022-08-17T21:10:20.115Z,95072.63
2022-08-17T21:12:42.549Z,95084.00
2022-08-17T21:14:59.845Z,95080.28
2022-08-17T21:17:17.575Z,95077.03
2022-08-17T21:19:44.412Z,95080.72
2022-08-17T21:22:07.490Z,95080.13
2022-08-17T21:24:20.435Z,95075.59
2022-08-17T21:26:31.185Z,95080.16
2022-08-17T21:29:00.242Z,95081.38
2022-08-17T21:31:02.610Z,95091.47
2022-08-17T21:33:20.078Z,95097.28
2022-08-17T21:35:47.368Z,95086.75
2022-08-17T21:37:48.963Z,95098.94
2022-08-17T21:39:51.915Z,95101.63
2022-08-17T21:41:53.952Z,95098.75
2022-08-17T21:43:56.777Z,95101.44
2022-08-17T21:45:58.247Z,95108.44
2022-08-17T21:48:14.225Z,95105.16
2022-08-17T21:50:19.422Z,95101.44
2022-08-17T21:52:21.331Z,95104.56
2022-08-17T21:54:31.898Z,95103.53
2022-08-17T21:56:32.724Z,95111.34
2022-08-17T21:58:34.912Z,95111.75
2022-08-17T22:00:34.222Z,95107.44
2022-08-17T22:02:35.189Z,95110.94
2022-08-17T22:04:35.640Z,95106.03
2022-08-17T22:06:39.789Z,95107.84
2022-08-17T22:08:38.222Z,95108.91
2022-08-17T22:10:40.918Z,95112.59
2022-08-17T22:12:42.732Z,95113.44
2022-08-17T22:14:52.576Z,95106.63
2022-08-17T22:17:08.313Z,95112.59
2022-08-17T22:19:06.740Z,95103.94
2022-08-17T22:21:07.257Z,95100.25
2022-08-17T22:23:31.137Z,95108.69
2022-08-17T22:25:31.175Z,95106.00
2022-08-17T22:27:56.487Z,95094.06
2022-08-17T22:29:58.140Z,95105.97
2022-08-17T22:31:57.628Z,95093.41
2022-08-17T22:34:11.150Z,95106.41
2022-08-17T22:36:12.517Z,95105.34
2022-08-17T22:38:33.436Z,95091.53
2022-08-17T22:40:33.808Z,95093.81
2022-08-17T22:42:32.997Z,95097.28
2022-08-17T22:44:35.647Z,95098.72
2022-08-17T22:46:39.755Z,95100.56
2022-08-17T22:48:39.046Z,95096.44
2022-08-17T22:50:37.523Z,95102.63
2022-08-17T22:52:59.546Z,95106.16
2022-08-17T22:55:36.545Z,95096.72
2022-08-17T22:58:08.193Z,95103.50
2022-08-17T23:00:29.542Z,95095.25
2022-08-17T23:02:29.505Z,95092.13
2022-08-17T23:04:34.238Z,95095.84
2022-08-17T23:06:33.989Z,95089.88
2022-08-17T23:08:35.542Z,95088.00
2022-08-17T23:10:36.012Z,95092.38
2022-08-17T23:12:38.220Z,95089.44
2022-08-17T23:14:45.414Z,95090.66
2022-08-17T23:16:49.351Z,95095.59
2022-08-17T23:18:48.014Z,95090.66
2022-08-17T23:20:46.863Z,95081.97
2022-08-17T23:22:51.747Z,95077.06
2022-08-17T23:24:50.875Z,95081.13
2022-08-17T23:26:49.149Z,95082.00
2022-08-17T23:28:47.832Z,95078.88
2022-08-17T23:30:48.612Z,95082.81
2022-08-17T23:32:53.623Z,95088.44
2022-08-17T23:34:52.624Z,95081.81
2022-08-17T23:36:53.127Z,95089.72
2022-08-17T23:38:53.649Z,95089.13
2022-08-17T23:40:51.960Z,95085.53
2022-08-17T23:42:50.962Z,95089.59
2022-08-17T23:44:49.509Z,95090.47
2022-08-17T23:46:47.720Z,95082.22
2022-08-17T23:48:47.789Z,95089.25
2022-08-17T23:50:46.042Z,95089.63
2022-08-17T23:52:46.759Z,95090.59
2022-08-17T23:54:48.591Z,95083.78
2022-08-17T23:56:46.968Z,95088.31
2022-08-17T23:58:45.924Z,95084.16
